EDLN

Mönchengladbach Airport

Mönchengladbach, Germany
METAR EDLN 251820Z 00000KT CAVOK 09/07 Q1037
Observed Flight Rules
Sep-25 @ 18:20 UTC (43 minutes ago) Visual Flight Rules
Visibility Clouds
10,000+ meters
  • Clear skies
Temperatures Readings
Current 9°C / 48°F
Dewpoint 7°C / 45°F
Humidity 87%
Altimeter 30.62" Hg
Pressure 1037 hPa
Elevation 38
METAR EDLN 251820Z 00000KT CAVOK 09/07 Q1037
Observed Flight Rules
Sep-25 @ 18:20 UTC
(43 minutes ago)
VFR
Clouds
  • Clear skies
Temperature Dewpoint
9°C / 48°F 7°C / 45°F
Humidity Altimeter Pressure
87% 30.62" Hg 1037 hPa